createdAt,value
2023-03-25T00:01:26.607Z,98928.78
2023-03-25T00:03:55.237Z,98924.81
2023-03-25T00:06:23.633Z,98933.94
2023-03-25T00:08:52.094Z,98964.75
2023-03-25T00:11:20.563Z,98940.28
2023-03-25T00:13:51.756Z,98956.31
2023-03-25T00:16:20.764Z,98956.19
2023-03-25T00:18:50.418Z,98958.13
2023-03-25T00:21:20.628Z,98968.94
2023-03-25T00:23:49.176Z,98969.59
2023-03-25T00:26:18.887Z,98976.25
2023-03-25T00:28:47.309Z,98975.97
2023-03-25T00:31:17.379Z,98991.44
2023-03-25T00:33:46.137Z,98988.53
2023-03-25T00:36:15.586Z,99005.97
2023-03-25T00:38:45.990Z,99003.31
2023-03-25T00:41:23.202Z,99001.53
2023-03-25T00:43:54.584Z,99003.63
2023-03-25T00:46:28.245Z,99012.59
2023-03-25T00:48:58.567Z,99029.50
2023-03-25T00:51:31.577Z,99015.22
2023-03-25T00:54:01.760Z,99020.47
2023-03-25T00:56:31.272Z,99025.72
2023-03-25T00:59:00.915Z,99027.25
2023-03-25T01:01:31.430Z,99031.00
2023-03-25T01:04:01.760Z,99038.31
2023-03-25T01:06:35.658Z,99029.75
2023-03-25T01:09:07.101Z,99050.94
2023-03-25T01:11:38.728Z,99038.31
2023-03-25T01:14:09.361Z,99047.59
2023-03-25T01:16:39.466Z,99083.00
2023-03-25T01:19:08.327Z,99043.72
2023-03-25T01:21:37.444Z,99049.09
2023-03-25T01:24:06.718Z,99059.34
2023-03-25T01:26:35.564Z,99052.84
2023-03-25T01:29:04.343Z,99061.97
2023-03-25T01:31:33.114Z,99069.28
2023-03-25T01:34:03.635Z,99070.50
2023-03-25T01:36:33.199Z,99069.13
2023-03-25T01:39:02.023Z,99066.38
2023-03-25T01:41:46.425Z,99058.19
2023-03-25T01:44:56.744Z,99069.66
2023-03-25T01:47:27.100Z,99066.88
2023-03-25T01:49:57.300Z,99081.13
2023-03-25T01:52:29.851Z,99091.88
2023-03-25T01:55:00.125Z,99083.03
2023-03-25T01:57:31.614Z,99094.66
2023-03-25T02:00:07.441Z,99095.59
2023-03-25T02:02:40.362Z,99094.66
2023-03-25T02:05:20.653Z,99101.81
2023-03-25T02:07:51.196Z,99109.84
2023-03-25T02:10:21.352Z,99113.31
2023-03-25T02:12:50.298Z,99114.84
2023-03-25T02:15:21.021Z,99112.22
2023-03-25T02:18:04.655Z,99131.44
2023-03-25T02:21:05.938Z,99131.28
2023-03-25T02:23:58.473Z,99145.38
2023-03-25T02:26:50.300Z,99160.56
2023-03-25T02:29:37.334Z,99137.50
2023-03-25T02:32:19.732Z,99160.69
2023-03-25T02:35:10.827Z,99156.41
2023-03-25T02:38:15.693Z,99165.38
2023-03-25T02:40:52.767Z,99179.47
2023-03-25T02:43:27.824Z,99177.25
2023-03-25T02:46:01.002Z,99184.41
2023-03-25T02:48:35.945Z,99195.03
2023-03-25T02:51:11.584Z,99182.88
2023-03-25T02:53:44.273Z,99194.59
2023-03-25T02:56:18.301Z,99197.47
2023-03-25T02:58:49.014Z,99199.28
2023-03-25T03:01:17.733Z,99210.88
2023-03-25T03:03:47.354Z,99206.84
2023-03-25T03:06:19.122Z,99210.00
2023-03-25T03:09:04.192Z,99218.03
2023-03-25T03:11:41.684Z,99229.34
2023-03-25T03:14:38.442Z,99250.47
2023-03-25T03:17:14.055Z,99241.19
2023-03-25T03:19:47.485Z,99244.06
2023-03-25T03:22:35.644Z,99251.00
2023-03-25T03:25:11.160Z,99263.66
2023-03-25T03:27:47.724Z,99263.66
2023-03-25T03:30:23.721Z,99269.28
2023-03-25T03:33:01.643Z,99268.59
2023-03-25T03:35:38.524Z,99267.75
2023-03-25T03:38:12.265Z,99277.66
2023-03-25T03:40:45.320Z,99286.50
2023-03-25T03:43:19.521Z,99285.91
2023-03-25T03:45:53.518Z,99302.59
2023-03-25T03:48:27.489Z,99309.75
2023-03-25T03:51:00.979Z,99327.28
2023-03-25T03:53:35.441Z,99319.41
2023-03-25T03:56:08.475Z,99332.81
2023-03-25T03:58:42.098Z,99329.72
2023-03-25T04:01:15.351Z,99333.41
2023-03-25T04:03:50.228Z,99342.94
2023-03-25T04:06:24.839Z,99338.19
2023-03-25T04:09:00.256Z,99353.19
2023-03-25T04:11:35.608Z,99350.84
2023-03-25T04:14:07.675Z,99348.91
2023-03-25T04:16:37.858Z,99361.44
2023-03-25T04:19:09.674Z,99363.94
2023-03-25T04:21:38.272Z,99369.28
2023-03-25T04:24:08.677Z,99382.53
2023-03-25T04:26:37.854Z,99372.78
2023-03-25T04:29:10.430Z,99385.16
2023-03-25T04:31:46.760Z,99360.22
2023-03-25T04:34:16.640Z,99378.50
2023-03-25T04:36:45.159Z,99391.00
2023-03-25T04:39:18.074Z,99412.09
2023-03-25T04:41:47.003Z,99399.00
2023-03-25T04:44:21.206Z,99405.91
2023-03-25T04:46:50.877Z,99408.66
2023-03-25T04:49:22.013Z,99411.41
2023-03-25T04:51:51.724Z,99416.88
2023-03-25T04:54:21.257Z,99421.97
2023-03-25T04:56:51.293Z,99423.69
2023-03-25T04:59:23.699Z,99428.06
2023-03-25T05:01:54.286Z,99425.22
2023-03-25T05:04:25.140Z,99429.38
2023-03-25T05:06:53.663Z,99429.13
2023-03-25T05:09:23.394Z,99441.19
2023-03-25T05:11:54.377Z,99444.28
2023-03-25T05:14:24.871Z,99438.31
2023-03-25T05:16:53.629Z,99441.88
2023-03-25T05:19:22.320Z,99457.25
2023-03-25T05:21:51.442Z,99455.34
2023-03-25T05:24:20.133Z,99456.16
2023-03-25T05:26:50.220Z,99454.38
2023-03-25T05:29:19.388Z,99471.81
2023-03-25T05:31:49.862Z,99469.66
2023-03-25T05:34:20.905Z,99467.72
2023-03-25T05:36:49.806Z,99485.13
2023-03-25T05:39:18.730Z,99480.47
2023-03-25T05:41:47.576Z,99490.72
2023-03-25T05:44:19.264Z,99488.94
2023-03-25T05:46:49.586Z,99501.00
2023-03-25T05:49:19.458Z,99496.94
2023-03-25T05:51:49.850Z,99502.41
2023-03-25T05:54:19.232Z,99513.13
2023-03-25T05:56:48.595Z,99515.91
2023-03-25T05:59:18.253Z,99514.22
2023-03-25T06:01:46.823Z,99519.84
2023-03-25T06:04:16.959Z,99529.59
2023-03-25T06:06:45.681Z,99534.97
2023-03-25T06:09:14.226Z,99532.47
2023-03-25T06:11:42.604Z,99542.84
2023-03-25T06:14:12.313Z,99535.66
2023-03-25T06:16:44.089Z,99549.53
2023-03-25T06:19:13.441Z,99554.75
2023-03-25T06:21:43.658Z,99558.09
2023-03-25T06:24:12.495Z,99547.97
2023-03-25T06:26:41.096Z,99577.31
2023-03-25T06:29:09.850Z,99579.56
2023-03-25T06:31:38.844Z,99575.50
2023-03-25T06:34:08.217Z,99582.19
2023-03-25T06:36:36.837Z,99587.78
2023-03-25T06:39:07.041Z,99585.50
2023-03-25T06:41:38.399Z,99592.78
2023-03-25T06:44:07.217Z,99596.94
2023-03-25T06:46:35.733Z,99605.28
2023-03-25T06:49:04.022Z,99603.00
2023-03-25T06:51:32.542Z,99613.13
2023-03-25T06:54:01.246Z,99619.25
2023-03-25T06:56:31.136Z,99612.78
2023-03-25T06:59:00.000Z,99623.16
2023-03-25T07:01:28.669Z,99632.47
2023-03-25T07:03:58.090Z,99621.00
2023-03-25T07:06:26.837Z,99634.16
2023-03-25T07:08:56.699Z,99649.53
2023-03-25T07:11:28.518Z,99643.19
2023-03-25T07:13:59.489Z,99662.06
2023-03-25T07:16:28.129Z,99644.13
2023-03-25T07:18:57.576Z,99644.69
2023-03-25T07:21:26.476Z,99637.19
2023-03-25T07:23:55.357Z,99643.41
2023-03-25T07:26:24.180Z,99637.69
2023-03-25T07:28:52.658Z,99648.56
2023-03-25T07:31:22.827Z,99634.94
2023-03-25T07:33:51.781Z,99651.44
2023-03-25T07:36:23.977Z,99643.03
2023-03-25T07:38:53.430Z,99641.97
2023-03-25T07:41:23.095Z,99636.22
2023-03-25T07:43:51.738Z,99640.75
2023-03-25T07:46:20.401Z,99653.53
2023-03-25T07:48:51.717Z,99665.09
2023-03-25T07:51:20.085Z,99662.66
2023-03-25T07:53:48.928Z,99671.50
2023-03-25T07:56:17.729Z,99673.16
2023-03-25T07:58:46.616Z,99668.50
2023-03-25T08:01:15.097Z,99686.66
2023-03-25T08:03:43.540Z,99676.28
2023-03-25T08:06:13.418Z,99677.81
2023-03-25T08:08:41.902Z,99680.78
2023-03-25T08:11:11.153Z,99681.72
2023-03-25T08:13:39.935Z,99676.66
2023-03-25T08:16:13.369Z,99679.84
2023-03-25T08:18:45.432Z,99687.25
2023-03-25T08:21:16.207Z,99680.13
2023-03-25T08:23:45.547Z,99691.59
2023-03-25T08:26:14.025Z,99697.63
2023-03-25T08:28:42.588Z,99703.22
2023-03-25T08:31:12.198Z,99718.88
2023-03-25T08:33:41.422Z,99705.97
2023-03-25T08:36:14.557Z,99715.50
2023-03-25T08:38:44.618Z,99719.34
2023-03-25T08:41:13.174Z,99718.53
2023-03-25T08:43:43.043Z,99724.31
2023-03-25T08:46:12.875Z,99719.50
2023-03-25T08:48:41.566Z,99713.59
2023-03-25T08:51:10.781Z,99731.44
2023-03-25T08:53:39.240Z,99722.19
2023-03-25T08:56:11.494Z,99734.19
2023-03-25T08:58:39.800Z,99739.50
2023-03-25T09:01:09.517Z,99742.34
2023-03-25T09:03:38.761Z,99747.47
2023-03-25T09:06:08.531Z,99746.31
2023-03-25T09:08:38.453Z,99751.78
2023-03-25T09:11:08.954Z,99751.06
2023-03-25T09:13:37.747Z,99760.97
2023-03-25T09:16:07.281Z,99767.25
2023-03-25T09:18:37.091Z,99769.84
2023-03-25T09:21:07.028Z,99765.41
2023-03-25T09:23:35.733Z,99765.91
2023-03-25T09:26:05.654Z,99788.03
2023-03-25T09:28:36.745Z,99773.09
2023-03-25T09:31:06.141Z,99766.69
2023-03-25T09:33:34.984Z,99772.34
2023-03-25T09:36:04.224Z,99758.44
2023-03-25T09:38:32.899Z,99759.72
2023-03-25T09:41:05.486Z,99751.31
2023-03-25T09:43:49.793Z,99748.41
2023-03-25T09:46:20.532Z,99754.06
2023-03-25T09:48:51.131Z,99756.00
2023-03-25T09:51:26.052Z,99750.91
2023-03-25T09:53:57.692Z,99762.00
2023-03-25T09:56:29.266Z,99748.78
2023-03-25T09:59:04.406Z,99766.13
2023-03-25T10:01:40.520Z,99761.75
2023-03-25T10:04:33.938Z,99775.06
2023-03-25T10:07:13.239Z,99774.25
2023-03-25T10:09:49.269Z,99768.41
2023-03-25T10:12:33.088Z,99783.72
2023-03-25T10:15:15.712Z,99771.41
2023-03-25T10:17:56.992Z,99783.19
2023-03-25T10:20:42.619Z,99783.94
2023-03-25T10:23:22.108Z,99785.19
2023-03-25T10:25:56.653Z,99780.84
2023-03-25T10:28:30.366Z,99799.44
2023-03-25T10:31:01.393Z,99789.28
2023-03-25T10:33:36.609Z,99796.50
2023-03-25T10:36:08.047Z,99803.28
2023-03-25T10:38:39.598Z,99797.75
2023-03-25T10:41:17.870Z,99805.94
2023-03-25T10:43:46.683Z,99797.75
2023-03-25T10:46:28.064Z,99813.56
2023-03-25T10:48:57.112Z,99805.50
2023-03-25T10:51:30.633Z,99805.66
2023-03-25T10:54:00.066Z,99814.28
2023-03-25T10:56:33.330Z,99804.13
2023-03-25T10:59:08.888Z,99807.72
2023-03-25T11:01:42.092Z,99813.16
2023-03-25T11:04:15.297Z,99805.38
2023-03-25T11:06:47.471Z,99809.53
2023-03-25T11:09:19.488Z,99814.41
2023-03-25T11:11:48.996Z,99803.69
2023-03-25T11:14:18.194Z,99805.47
2023-03-25T11:16:50.727Z,99825.06
2023-03-25T11:19:26.155Z,99812.59
2023-03-25T11:21:59.815Z,99819.84
2023-03-25T11:24:34.193Z,99830.81
2023-03-25T11:27:04.495Z,99823.16
2023-03-25T11:29:35.768Z,99819.66
2023-03-25T11:32:14.773Z,99818.53
2023-03-25T11:34:43.263Z,99815.25
2023-03-25T11:37:18.891Z,99818.59
2023-03-25T11:39:55.785Z,99803.59
2023-03-25T11:42:33.715Z,99800.19
2023-03-25T11:45:03.923Z,99804.44
2023-03-25T11:47:36.806Z,99802.25
2023-03-25T11:50:07.688Z,99805.38
2023-03-25T11:52:43.289Z,99808.00
2023-03-25T11:55:19.448Z,99802.78
2023-03-25T11:57:49.606Z,99808.69
2023-03-25T12:00:37.898Z,99805.28
2023-03-25T12:03:20.873Z,99806.16
2023-03-25T12:21:17.151Z,99802.97
2023-03-25T12:23:56.848Z,99801.00
2023-03-25T12:26:32.689Z,99793.44
2023-03-25T12:29:21.812Z,99799.84
2023-03-25T12:32:03.792Z,99800.25
2023-03-25T12:34:42.407Z,99799.09
2023-03-25T12:37:24.113Z,99814.06
2023-03-25T12:40:08.075Z,99804.28
2023-03-25T12:42:44.827Z,99824.91
2023-03-25T12:45:32.356Z,99820.53
2023-03-25T12:48:13.155Z,99813.72
2023-03-25T12:50:55.259Z,99823.69
2023-03-25T12:53:40.821Z,99818.91
2023-03-25T12:56:26.743Z,99816.47
2023-03-25T12:59:15.760Z,99794.75
2023-03-25T13:01:55.331Z,99801.34
2023-03-25T13:04:53.228Z,99794.06
2023-03-25T13:07:26.136Z,99792.50
2023-03-25T13:10:05.261Z,99784.59
2023-03-25T13:12:37.739Z,99777.31
2023-03-25T13:15:21.736Z,99780.78
2023-03-25T13:18:01.185Z,99782.38
2023-03-25T13:20:34.333Z,99788.56
2023-03-25T13:23:08.092Z,99781.66
2023-03-25T13:25:50.635Z,99801.81
2023-03-25T13:28:23.588Z,99855.03
2023-03-25T13:30:58.189Z,99862.06
2023-03-25T13:33:41.100Z,99875.81
2023-03-25T13:36:17.058Z,99887.25
2023-03-25T13:38:58.709Z,99888.22
2023-03-25T13:41:40.769Z,99894.31
2023-03-25T13:44:16.588Z,99897.25
2023-03-25T13:46:49.746Z,99901.00
2023-03-25T13:49:24.241Z,99893.44
2023-03-25T13:51:54.965Z,99890.81
2023-03-25T13:54:30.299Z,99897.34
2023-03-25T13:57:34.526Z,99889.91
2023-03-25T14:00:25.462Z,99905.38
2023-03-25T14:03:35.345Z,99890.53
2023-03-25T14:06:33.928Z,99871.97
2023-03-25T14:09:36.676Z,99864.16
2023-03-25T14:12:10.308Z,99849.56
2023-03-25T14:14:43.108Z,99842.47
2023-03-25T14:17:15.163Z,99839.56
2023-03-25T14:19:49.833Z,99845.16
2023-03-25T14:22:21.943Z,99838.66
2023-03-25T14:24:53.906Z,99868.88
2023-03-25T14:27:28.178Z,99862.13
2023-03-25T14:30:00.704Z,99869.38
2023-03-25T14:32:36.024Z,99880.47
2023-03-25T14:35:42.559Z,99882.06
2023-03-25T14:38:47.893Z,99881.03
2023-03-25T14:41:16.434Z,99881.53
2023-03-25T14:43:54.763Z,99861.13
2023-03-25T14:46:26.510Z,99814.13
2023-03-25T14:49:21.275Z,99798.03
2023-03-25T14:51:54.215Z,99786.72
2023-03-25T14:54:31.165Z,99782.94
2023-03-25T14:57:07.145Z,99782.63
2023-03-25T14:59:40.375Z,99799.84
2023-03-25T15:02:18.359Z,99803.06
2023-03-25T15:04:55.173Z,99803.56
2023-03-25T15:07:45.793Z,99793.47
2023-03-25T15:10:23.871Z,99784.56
2023-03-25T15:12:54.919Z,99759.78
2023-03-25T15:15:34.005Z,99749.91
2023-03-25T15:18:03.776Z,99753.38
2023-03-25T15:20:36.335Z,99767.16
2023-03-25T15:23:33.290Z,99770.19
2023-03-25T15:26:05.039Z,99766.06
2023-03-25T15:29:01.261Z,99770.81
2023-03-25T15:31:47.484Z,99764.72
2023-03-25T15:34:27.274Z,99767.72
2023-03-25T15:37:21.113Z,99766.72
2023-03-25T15:40:08.981Z,99776.97
2023-03-25T15:42:51.689Z,99779.69
2023-03-25T15:45:58.706Z,99777.22
2023-03-25T15:48:45.827Z,99762.97
2023-03-25T15:51:28.214Z,99752.16
2023-03-25T15:54:22.455Z,99748.47
2023-03-25T15:56:57.608Z,99746.50
2023-03-25T15:59:38.798Z,99748.00
2023-03-25T16:02:18.723Z,99746.78
2023-03-25T16:04:51.351Z,99728.81
2023-03-25T16:07:23.962Z,99728.16
2023-03-25T16:09:56.019Z,99723.97
2023-03-25T16:12:27.182Z,99729.63
2023-03-25T16:14:55.688Z,99719.13
2023-03-25T16:17:33.325Z,99724.88
2023-03-25T16:20:06.058Z,99710.41
2023-03-25T16:22:38.204Z,99710.53
2023-03-25T16:25:18.243Z,99692.03
2023-03-25T16:27:48.382Z,99686.28
2023-03-25T16:30:24.140Z,99676.44
2023-03-25T16:32:53.230Z,99670.72
2023-03-25T16:35:25.609Z,99658.06
2023-03-25T16:37:57.500Z,99652.44
2023-03-25T16:40:31.049Z,99651.78
2023-03-25T16:43:06.477Z,99652.00
2023-03-25T16:45:35.914Z,99645.78
2023-03-25T16:48:09.833Z,99655.31
2023-03-25T16:50:39.526Z,99660.16
2023-03-25T16:53:08.912Z,99663.78
2023-03-25T16:55:49.182Z,99651.78
2023-03-25T16:58:21.181Z,99644.06
2023-03-25T17:00:53.002Z,99639.91
2023-03-25T17:03:41.172Z,99646.06
2023-03-25T17:06:19.653Z,99638.59
2023-03-25T17:08:51.975Z,99642.56
2023-03-25T17:11:24.484Z,99644.38
2023-03-25T17:13:56.478Z,99636.69
2023-03-25T17:16:29.660Z,99632.66
2023-03-25T17:18:58.341Z,99633.00
2023-03-25T17:21:30.502Z,99627.75
2023-03-25T17:24:02.043Z,99631.78
2023-03-25T17:26:35.017Z,99627.78
2023-03-25T17:29:08.518Z,99630.88
2023-03-25T17:31:39.122Z,99629.28
2023-03-25T17:34:10.241Z,99625.88
2023-03-25T17:36:40.629Z,99623.56
2023-03-25T17:39:19.967Z,99618.53
2023-03-25T17:42:01.822Z,99624.38
2023-03-25T17:44:35.151Z,99627.97
2023-03-25T17:47:04.121Z,99618.22
2023-03-25T17:49:32.874Z,99624.19
2023-03-25T17:52:01.662Z,99637.38
2023-03-25T17:54:30.497Z,99635.75
2023-03-25T17:57:00.511Z,99633.25
2023-03-25T17:59:29.335Z,99640.47
2023-03-25T18:01:58.721Z,99638.00
2023-03-25T18:04:27.654Z,99645.44
2023-03-25T18:06:56.300Z,99632.69
2023-03-25T18:09:26.538Z,99647.03
2023-03-25T18:11:57.678Z,99642.34
2023-03-25T18:14:28.239Z,99637.25
2023-03-25T18:16:57.904Z,99636.16
2023-03-25T18:19:31.431Z,99638.66
2023-03-25T18:22:09.976Z,99644.50
2023-03-25T18:24:47.813Z,99643.94
2023-03-25T18:27:16.340Z,99644.63
2023-03-25T18:29:47.560Z,99652.13
2023-03-25T18:32:16.441Z,99652.69
2023-03-25T18:34:45.086Z,99661.44
2023-03-25T18:37:13.844Z,99656.72
2023-03-25T18:39:42.607Z,99660.47
2023-03-25T18:42:11.101Z,99653.38
2023-03-25T18:44:40.005Z,99655.88
2023-03-25T18:47:11.044Z,99658.91
2023-03-25T18:49:39.743Z,99661.13
2023-03-25T18:52:08.355Z,99665.00
2023-03-25T18:54:37.493Z,99660.03
2023-03-25T18:57:06.107Z,99660.03
2023-03-25T18:59:35.005Z,99657.25
2023-03-25T19:02:03.674Z,99657.81
2023-03-25T19:04:35.622Z,99663.88
2023-03-25T19:07:05.589Z,99664.56
2023-03-25T19:09:34.736Z,99657.19
2023-03-25T19:12:03.200Z,99663.16
2023-03-25T19:14:31.857Z,99650.53
2023-03-25T19:17:03.967Z,99656.78
2023-03-25T19:19:36.476Z,99666.59
2023-03-25T19:22:04.972Z,99659.09
2023-03-25T19:24:33.359Z,99661.97
2023-03-25T19:27:01.821Z,99659.47
2023-03-25T19:29:30.336Z,99660.47
2023-03-25T19:31:58.860Z,99657.97
2023-03-25T19:34:27.617Z,99666.81
2023-03-25T19:37:02.905Z,99664.19
2023-03-25T19:39:31.564Z,99659.31
2023-03-25T19:42:00.269Z,99665.00
2023-03-25T19:44:28.876Z,99658.09
2023-03-25T19:46:57.788Z,99663.09
2023-03-25T19:49:38.729Z,99664.19
2023-03-25T19:52:09.678Z,99657.97
2023-03-25T19:54:38.002Z,99667.22
2023-03-25T19:57:06.438Z,99667.06
2023-03-25T19:59:35.194Z,99667.84
2023-03-25T20:02:03.815Z,99662.97
2023-03-25T20:04:32.507Z,99660.59
2023-03-25T20:07:01.354Z,99666.13
2023-03-25T20:09:31.791Z,99668.19
2023-03-25T20:12:00.162Z,99674.69
2023-03-25T20:14:28.762Z,99672.94
2023-03-25T20:16:57.542Z,99675.97
2023-03-25T20:19:27.125Z,99678.75
2023-03-25T20:21:55.710Z,99667.06
2023-03-25T20:24:24.271Z,99653.44
2023-03-25T20:26:54.351Z,99666.09
2023-03-25T20:29:24.086Z,99667.19
2023-03-25T20:31:53.022Z,99659.53
2023-03-25T20:34:21.973Z,99660.50
2023-03-25T20:36:50.294Z,99661.97
2023-03-25T20:39:18.876Z,99666.50
2023-03-25T20:41:47.516Z,99664.59
2023-03-25T20:44:22.266Z,99653.75
2023-03-25T20:46:50.848Z,99654.47
2023-03-25T20:49:21.850Z,99657.34
2023-03-25T20:51:51.252Z,99657.34
2023-03-25T20:54:20.093Z,99657.59
2023-03-25T20:56:51.536Z,99643.00
2023-03-25T20:59:22.041Z,99634.56
2023-03-25T21:01:53.750Z,99629.31
2023-03-25T21:04:22.552Z,99627.63
2023-03-25T21:06:51.570Z,99631.81
2023-03-25T21:09:20.440Z,99623.56
2023-03-25T21:11:48.970Z,99637.97
2023-03-25T21:14:19.135Z,99638.91
2023-03-25T21:16:49.293Z,99646.78
2023-03-25T21:19:18.348Z,99640.47
2023-03-25T21:21:47.040Z,99645.84
2023-03-25T21:24:17.235Z,99637.38
2023-03-25T21:26:45.900Z,99617.41
2023-03-25T21:29:15.873Z,99618.75
2023-03-25T21:31:44.364Z,99617.81
2023-03-25T21:34:16.263Z,99616.97
2023-03-25T21:36:45.024Z,99613.38
2023-03-25T21:39:13.715Z,99621.53
2023-03-25T21:41:42.484Z,99624.41
2023-03-25T21:44:12.866Z,99634.22
2023-03-25T21:46:42.630Z,99624.34
2023-03-25T21:49:14.366Z,99628.03
2023-03-25T21:51:50.615Z,99630.28
2023-03-25T21:54:19.475Z,99631.25
2023-03-25T21:56:52.152Z,99638.31
2023-03-25T21:59:20.790Z,99631.50
2023-03-25T22:01:49.614Z,99631.75
2023-03-25T22:04:19.299Z,99628.78
2023-03-25T22:06:49.306Z,99627.34
2023-03-25T22:09:18.098Z,99625.69
2023-03-25T22:11:46.738Z,99631.78
2023-03-25T22:14:15.401Z,99626.91
2023-03-25T22:16:43.950Z,99621.41
2023-03-25T22:19:13.952Z,99626.53
2023-03-25T22:21:43.564Z,99630.25
2023-03-25T22:24:13.639Z,99626.06
2023-03-25T22:26:43.397Z,99627.63
2023-03-25T22:29:13.741Z,99622.47
2023-03-25T22:31:43.157Z,99624.16
2023-03-25T22:34:15.973Z,99620.94
2023-03-25T22:36:50.234Z,99626.44
2023-03-25T22:39:23.286Z,99630.66
2023-03-25T22:41:52.477Z,99626.59
2023-03-25T22:44:21.506Z,99628.38
2023-03-25T22:46:51.779Z,99633.78
2023-03-25T22:49:20.903Z,99626.72
2023-03-25T22:51:49.469Z,99631.97
2023-03-25T22:54:19.976Z,99630.41
2023-03-25T22:56:48.542Z,99632.81
2023-03-25T22:59:17.376Z,99627.41
2023-03-25T23:01:46.251Z,99632.94
2023-03-25T23:04:15.154Z,99634.84
2023-03-25T23:06:49.006Z,99639.41
2023-03-25T23:09:38.317Z,99643.00
2023-03-25T23:12:07.499Z,99642.84
2023-03-25T23:14:36.635Z,99644.50
2023-03-25T23:17:05.465Z,99643.69
2023-03-25T23:19:34.014Z,99645.34
2023-03-25T23:22:05.155Z,99639.63
2023-03-25T23:24:38.238Z,99652.53
2023-03-25T23:27:08.894Z,99652.41
2023-03-25T23:29:39.272Z,99651.44
2023-03-25T23:32:10.186Z,99646.19
2023-03-25T23:34:40.511Z,99646.44
2023-03-25T23:37:10.515Z,99655.38
2023-03-25T23:39:42.183Z,99653.59
2023-03-25T23:42:10.839Z,99648.47
2023-03-25T23:44:39.409Z,99652.91
2023-03-25T23:47:08.088Z,99659.22
2023-03-25T23:49:38.687Z,99655.88
2023-03-25T23:52:11.768Z,99659.47
2023-03-25T23:54:43.150Z,99655.16
2023-03-25T23:57:11.832Z,99654.22
2023-03-25T23:59:40.948Z,99654.47
